CST,Max TemperatureF,Mean TemperatureF,Min TemperatureF,Max Dew PointF,MeanDew PointF,Min DewpointF,Max Humidity, Mean Humidity, Min Humidity, Max Sea Level PressureIn, Mean Sea Level PressureIn, Min Sea Level PressureIn, Max VisibilityMiles, Mean VisibilityMiles, Min VisibilityMiles, Max Wind SpeedMPH, Mean Wind SpeedMPH, Max Gust SpeedMPH,PrecipitationIn, CloudCover, Events, WindDirDegrees
2013-2-1,19,7,-5,12,0,-15,86,71,57,30.31,30.12,29.95,10,10,10,17,7,18,0.00,4,,213
2013-2-2,33,22,10,28,15,5,93,80,68,30.14,30.05,29.94,10,8,0,30,8,46,0.00,7,Rain-Snow,290
2013-2-3,32,21,10,27,15,5,86,76,64,30.12,29.97,29.79,10,10,2,20,12,25,0.00,5,Snow,16
2013-2-4,23,16,10,19,12,5,93,79,68,30.04,29.91,29.75,10,10,4,20,10,25,0.00,4,Snow,243
2013-2-5,35,28,21,28,24,18,93,84,75,30.05,29.89,29.70,10,9,4,17,7,24,0.00,2,,308
2013-2-6,41,31,21,34,28,19,100,87,70,30.03,29.90,29.80,10,8,5,20,6,26,0.00,3,,175
2013-2-7,33,28,23,32,24,21,93,86,80,30.26,30.11,29.92,10,5,2,14,10,18,0.00,8,,7
2013-2-8,32,26,21,25,21,18,93,84,69,30.29,30.21,30.08,10,10,7,17,8,23,0.00,6,,143
2013-2-9,42,35,28,32,29,25,93,84,66,30.08,29.89,29.71,10,6,2,20,14,28,0.00,6,Rain,160
2013-2-10,33,30,28,32,29,23,100,92,80,29.71,29.41,29.22,10,5,0,25,14,34,0.15,8,Rain-Snow,59
2013-2-11,28,24,21,25,18,14,86,81,74,30.07,29.94,29.60,10,8,1,29,21,38,0.00,7,Snow,301
2013-2-12,32,24,17,23,19,12,93,78,60,30.05,29.93,29.85,10,10,7,14,7,,0.00,0,,246
2013-2-13,37,28,19,32,26,16,93,85,75,29.85,29.72,29.62,10,10,7,18,5,25,0.00,4,,250
2013-2-14,33,22,12,30,20,5,93,78,54,30.25,29.98,29.72,10,9,1,18,13,25,0.00,5,Snow,330
2013-2-15,21,14,8,10,7,3,85,75,63,30.33,30.30,30.25,10,10,5,12,6,17,0.00,1,Snow,325
2013-2-16,33,20,8,27,18,5,93,82,64,30.26,30.09,29.99,10,9,0,10,3,,0.00,4,Fog-Snow,176
2013-2-17,42,32,23,32,27,19,87,78,61,29.99,29.74,29.52,10,10,10,17,9,24,0.00,1,,171
2013-2-18,35,22,10,32,18,3,93,78,67,30.00,29.76,29.55,10,8,1,29,16,39,0.00,5,Snow,322
2013-2-19,10,4,-2,3,-4,-9,73,68,57,30.38,30.23,30.01,10,10,3,28,19,34,0.00,2,,331
2013-2-20,23,10,-4,10,1,-9,79,68,46,30.38,30.32,30.25,10,10,10,16,7,17,0.00,2,,89
2013-2-21,24,18,12,14,11,9,86,75,59,30.30,30.14,29.97,10,8,1,20,11,25,0.00,5,Snow,78
2013-2-22,23,18,12,19,15,9,93,82,74,29.96,29.92,29.89,10,5,0,16,11,21,0.00,6,Snow,343
2013-2-23,26,11,-4,19,6,-8,93,83,74,29.92,29.86,29.81,10,5,0,7,3,,0.00,3,Fog-Snow,88
2013-2-24,28,18,8,25,18,5,93,87,80,30.07,29.98,29.88,7,4,0,7,2,,0.00,5,Fog,58
2013-2-25,28,24,21,27,22,19,93,88,80,30.09,30.04,29.97,7,3,0,9,3,,0.00,8,Fog,352
2013-2-26,30,24,19,27,22,18,93,87,75,30.00,29.93,29.87,7,3,0,14,8,20,0.00,7,Fog,34
2013-2-27,33,26,19,23,20,14,86,75,60,30.08,29.99,29.92,10,9,5,21,13,31,0.00,1,,344
2013-2-28,28,24,21,21,20,18,86,80,74,30.22,30.17,30.08,10,10,5,18,11,24,0.00,8,Snow,344